Time;durP1;ratioP1;P1;durP2;ratioP2;P2;SDS_P1;SDS_P2;PMS_P1;PMS_P2;Temp;Humidity;BMP_temperature;BMP_pressure;BME280_temperature;BME280_humidity;BME280_pressure;Samples;Min_cycle;Max_cycle;Signal;HPM_P1;HPM_P2
2022/05/25 00:02:17;;;;;;;5.03;3.67;;;10.80;99.90;;;;;;5017022;28;20518;-66
2022/05/25 00:04:44;;;;;;;5.70;2.90;;;10.80;99.90;;;;;;5016300;28;20459;-66
2022/05/25 00:07:13;;;;;;;4.30;3.40;;;10.70;99.90;;;;;;5017488;28;20522;-66
2022/05/25 00:09:43;;;;;;;3.90;3.50;;;10.60;99.90;;;;;;5016631;28;20439;-66
2022/05/25 00:12:13;;;;;;;3.93;3.63;;;10.50;99.90;;;;;;5017303;28;20530;-66
2022/05/25 00:14:42;;;;;;;3.77;3.37;;;10.40;1.00;;;;;;5016112;28;20456;-66
2022/05/25 00:17:09;;;;;;;4.50;3.23;;;10.50;99.90;;;;;;5017164;28;20442;-66
2022/05/25 00:22:21;;;;;;;4.30;2.90;;;10.40;1.00;;;;;;5016453;28;20455;-66
2022/05/25 00:24:48;;;;;;;5.63;3.63;;;10.40;1.00;;;;;;5016448;28;20598;-66
2022/05/25 00:27:17;;;;;;;3.80;3.07;;;10.50;1.00;;;;;;5017124;28;20503;-66
2022/05/25 00:29:48;;;;;;;5.07;3.60;;;10.60;1.00;;;;;;5016421;28;20726;-66
2022/05/25 00:32:18;;;;;;;4.80;3.77;;;10.50;99.90;;;;;;5016330;28;20443;-66
2022/05/25 00:34:45;;;;;;;13.23;3.50;;;10.50;99.90;;;;;;5016123;28;20538;-66
2022/05/25 00:37:12;;;;;;;3.37;3.07;;;10.50;99.90;;;;;;5016742;28;20465;-66
2022/05/25 00:39:40;;;;;;;3.73;3.20;;;10.50;99.90;;;;;;5016502;28;20473;-65
2022/05/25 00:42:07;;;;;;;5.13;3.33;;;10.40;99.90;;;;;;5016416;28;20504;-66
2022/05/25 00:44:37;;;;;;;5.80;3.93;;;10.40;99.90;;;;;;5016089;28;20492;-66
2022/05/25 00:47:11;;;;;;;3.60;3.30;;;10.50;1.00;;;;;;5017685;28;20471;-66
2022/05/25 00:49:38;;;;;;;4.00;3.50;;;10.50;1.00;;;;;;5019771;28;20518;-66
2022/05/25 00:52:07;;;;;;;3.97;3.40;;;10.50;1.00;;;;;;5020489;28;20530;-66
2022/05/25 00:54:38;;;;;;;4.17;3.50;;;10.50;1.00;;;;;;5019576;28;20518;-65
2022/05/25 00:57:11;;;;;;;4.87;3.70;;;10.50;1.00;;;;;;5020188;28;20468;-66
2022/05/25 00:59:51;;;;;;;5.23;3.53;;;10.50;1.00;;;;;;5019868;28;20966;-65
2022/05/25 01:02:20;;;;;;;5.77;3.70;;;10.50;99.90;;;;;;5005966;28;20931;-65
2022/05/25 01:04:47;;;;;;;6.50;4.17;;;10.40;99.90;;;;;;5019943;28;20810;-65
2022/05/25 01:07:29;;;;;;;3.90;3.50;;;10.40;99.90;;;;;;5019803;28;20463;-65
2022/05/25 01:10:09;;;;;;;5.00;3.77;;;10.40;99.90;;;;;;5018766;28;20467;-65
2022/05/25 01:13:00;;;;;;;6.83;3.60;;;10.40;99.90;;;;;;5015212;28;20827;-66
2022/05/25 01:15:36;;;;;;;4.60;4.17;;;10.30;99.90;;;;;;5019466;28;20460;-65
2022/05/25 01:18:17;;;;;;;6.23;4.13;;;10.30;99.90;;;;;;5019151;28;20801;-65
2022/05/25 01:20:48;;;;;;;5.20;4.30;;;10.20;1.00;;;;;;5019133;28;20463;-65
2022/05/25 01:23:50;;;;;;;4.93;4.43;;;10.20;19.50;;;;;;5018042;28;20439;-65
2022/05/25 01:26:51;;;;;;;6.13;4.73;;;10.20;99.90;;;;;;5019346;28;20491;-65
2022/05/25 01:30:02;;;;;;;5.13;4.63;;;10.20;1.00;;;;;;5018781;28;20467;-65
2022/05/25 01:32:42;;;;;;;5.63;5.13;;;10.30;99.90;;;;;;5019267;28;20514;-65
2022/05/25 01:35:15;;;;;;;7.60;4.37;;;10.30;99.90;;;;;;5018886;28;20434;-66
2022/05/25 01:37:55;;;;;;;5.13;4.63;;;10.30;1.00;;;;;;5019798;28;20464;-65
2022/05/25 01:40:29;;;;;;;5.87;5.27;;;10.30;1.00;;;;;;5018217;28;20464;-65
2022/05/25 01:43:00;;;;;;;5.30;4.80;;;10.30;1.00;;;;;;5019096;28;20519;-65
2022/05/25 01:45:30;;;;;;;7.10;5.30;;;10.30;99.90;;;;;;5019331;28;20503;-65
2022/05/25 01:48:03;;;;;;;5.00;4.50;;;10.20;99.90;;;;;;5019259;28;20427;-65
2022/05/25 01:50:35;;;;;;;4.70;4.20;;;10.20;1.00;;;;;;5018448;28;20868;-65
2022/05/25 01:53:07;;;;;;;6.50;4.90;;;10.10;1.00;;;;;;5018850;28;20913;-65
2022/05/25 01:55:40;;;;;;;5.77;4.70;;;10.10;99.90;;;;;;5019405;28;20464;-65
2022/05/25 01:58:11;;;;;;;8.03;5.00;;;10.10;99.90;;;;;;5019445;28;20438;-65
2022/05/25 02:00:41;;;;;;;6.37;4.90;;;10.10;1.00;;;;;;5018294;28;20499;-66
2022/05/25 02:06:20;;;;;;;7.30;4.97;;;10.10;99.90;;;;;;5019141;28;20752;-65
2022/05/25 02:09:11;;;;;;;6.47;5.63;;;10.00;99.90;;;;;;5005870;28;20468;-65
2022/05/25 02:11:44;;;;;;;5.40;4.90;;;10.00;99.90;;;;;;4999309;28;20489;-65
2022/05/25 02:14:25;;;;;;;6.97;5.57;;;9.90;10.10;;;;;;5004366;28;20452;-65
2022/05/25 02:17:02;;;;;;;5.80;5.30;;;9.80;99.90;;;;;;5018718;28;20888;-65
2022/05/25 02:19:37;;;;;;;6.60;5.60;;;9.90;99.90;;;;;;5018857;28;20502;-65
2022/05/25 02:22:11;;;;;;;5.47;4.80;;;9.90;43.70;;;;;;5018725;28;20467;-66
2022/05/25 02:24:42;;;;;;;6.00;5.40;;;9.80;1.00;;;;;;5016656;28;20499;-66
2022/05/25 02:27:16;;;;;;;8.40;5.20;;;9.90;1.00;;;;;;5018821;28;20438;-66
2022/05/25 02:29:48;;;;;;;5.20;4.40;;;9.80;99.90;;;;;;5017441;28;20492;-66
2022/05/25 02:32:19;;;;;;;7.40;5.27;;;9.70;21.20;;;;;;5017195;28;20463;-65
2022/05/25 02:34:55;;;;;;;10.27;4.43;;;9.70;99.90;;;;;;5017989;28;20514;-66
2022/05/25 02:37:26;;;;;;;7.00;5.40;;;9.60;99.90;;;;;;5018753;28;20463;-66
2022/05/25 02:39:54;;;;;;;10.53;5.37;;;9.60;1.00;;;;;;5018695;28;20522;-66
2022/05/25 02:42:22;;;;;;;7.70;6.17;;;9.70;99.90;;;;;;5017571;28;20519;-65
2022/05/25 02:44:50;;;;;;;7.33;5.90;;;9.60;99.90;;;;;;5018423;28;20502;-66
2022/05/25 02:47:17;;;;;;;6.13;5.50;;;9.60;99.90;;;;;;5017883;28;20468;-65
2022/05/25 02:49:44;;;;;;;7.03;5.73;;;9.50;1.00;;;;;;5017850;28;20523;-66
2022/05/25 02:52:14;;;;;;;6.97;6.20;;;9.60;99.90;;;;;;5017292;28;20523;-65
2022/05/25 02:54:41;;;;;;;7.53;6.73;;;9.50;99.90;;;;;;5017798;28;20439;-65
2022/05/25 02:57:09;;;;;;;7.93;6.40;;;9.50;1.00;;;;;;5017333;28;20946;-66
2022/05/25 02:59:36;;;;;;;6.50;5.60;;;9.50;50.50;;;;;;5017609;28;20467;-66
2022/05/25 03:02:05;;;;;;;8.80;6.50;;;9.50;40.20;;;;;;5018054;28;20899;-66
2022/05/25 03:04:33;;;;;;;7.77;6.53;;;9.50;26.90;;;;;;5017456;28;20578;-66
2022/05/25 03:07:00;;;;;;;6.50;5.80;;;9.40;49.30;;;;;;5017848;28;20877;-66
2022/05/25 03:09:28;;;;;;;6.00;5.50;;;9.40;21.50;;;;;;5017161;28;20839;-66
2022/05/25 03:11:56;;;;;;;7.13;5.40;;;9.50;58.70;;;;;;5017046;28;20468;-66
2022/05/25 03:14:23;;;;;;;6.67;5.90;;;9.40;1.00;;;;;;5017385;28;20830;-66
2022/05/25 03:16:50;;;;;;;8.80;6.00;;;9.30;1.00;;;;;;5017753;28;20464;-66
2022/05/25 03:19:20;;;;;;;6.80;5.53;;;9.30;99.90;;;;;;5017575;28;20464;-66
2022/05/25 03:21:50;;;;;;;8.50;6.83;;;9.30;99.90;;;;;;5016254;28;20527;-66
2022/05/25 03:24:17;;;;;;;8.73;6.17;;;9.20;1.00;;;;;;5017402;28;20492;-66
2022/05/25 03:26:45;;;;;;;7.10;5.57;;;9.20;99.90;;;;;;5017515;28;20483;-66
2022/05/25 03:29:14;;;;;;;8.47;5.77;;;9.20;1.00;;;;;;5017201;28;20496;-66
2022/05/25 03:31:42;;;;;;;8.20;6.30;;;9.20;15.20;;;;;;5016715;28;20442;-66
2022/05/25 03:34:09;;;;;;;7.23;5.80;;;9.10;1.00;;;;;;5017654;28;20566;-66
2022/05/25 03:36:39;;;;;;;7.93;5.93;;;9.10;1.00;;;;;;5017363;28;20468;-66
2022/05/25 03:39:06;;;;;;;6.37;5.77;;;9.10;99.90;;;;;;5017508;28;20769;-66
2022/05/25 03:41:33;;;;;;;7.67;6.10;;;9.10;99.90;;;;;;5016930;28;20461;-66
2022/05/25 03:44:02;;;;;;;7.70;5.67;;;9.10;99.90;;;;;;5017711;28;20464;-65
2022/05/25 03:46:32;;;;;;;6.23;5.30;;;9.10;99.90;;;;;;5016625;28;20430;-66
2022/05/25 03:48:59;;;;;;;6.40;5.40;;;9.10;99.90;;;;;;5017626;28;20464;-65
2022/05/25 03:51:27;;;;;;;6.87;6.17;;;9.10;99.90;;;;;;5016984;28;20877;-65
2022/05/25 03:53:54;;;;;;;7.90;6.90;;;9.00;99.90;;;;;;5017708;28;20893;-65
2022/05/25 03:56:21;;;;;;;7.10;6.23;;;9.00;99.90;;;;;;5016445;28;20490;-65
2022/05/25 03:58:48;;;;;;;6.40;5.80;;;9.00;99.90;;;;;;5017182;28;20491;-66
2022/05/25 04:01:19;;;;;;;5.70;5.00;;;9.00;99.90;;;;;;5017192;28;20522;-65
2022/05/25 04:03:49;;;;;;;6.60;6.00;;;9.00;99.90;;;;;;5017059;28;20546;-66
2022/05/25 04:06:16;;;;;;;6.20;5.60;;;9.00;99.90;;;;;;5016417;28;20470;-66
2022/05/25 04:08:45;;;;;;;11.13;6.50;;;9.00;99.90;;;;;;5016945;28;20889;-66
2022/05/25 04:11:12;;;;;;;7.37;6.67;;;9.10;99.90;;;;;;5016999;28;20468;-66
2022/05/25 04:13:39;;;;;;;8.20;6.10;;;9.20;99.90;;;;;;5016097;28;20478;-66
2022/05/25 04:16:08;;;;;;;8.13;6.30;;;9.20;99.90;;;;;;5015537;28;20468;-66
2022/05/25 04:18:36;;;;;;;8.00;7.20;;;9.10;99.90;;;;;;5014017;28;20475;-65
2022/05/25 04:21:03;;;;;;;8.43;6.53;;;9.20;99.90;;;;;;5015367;28;20464;-66
2022/05/25 04:23:30;;;;;;;9.47;6.67;;;9.20;99.90;;;;;;5017847;28;20842;-65
2022/05/25 04:25:58;;;;;;;9.40;7.10;;;9.20;99.90;;;;;;5020117;28;20545;-65
2022/05/25 04:28:25;;;;;;;7.93;7.00;;;9.30;99.90;;;;;;5019674;28;20787;-65
2022/05/25 04:30:52;;;;;;;8.40;6.10;;;9.30;99.90;;;;;;5020187;28;20464;-65
2022/05/25 04:33:19;;;;;;;9.50;6.53;;;9.30;99.90;;;;;;5020883;28;20526;-65
2022/05/25 04:35:47;;;;;;;7.07;6.23;;;9.40;99.90;;;;;;5020657;28;20855;-65
2022/05/25 04:38:15;;;;;;;7.17;6.37;;;9.50;99.90;;;;;;5019694;28;20468;-66
2022/05/25 04:40:45;;;;;;;9.47;6.77;;;9.60;99.90;;;;;;5019336;28;20525;-65
2022/05/25 04:43:14;;;;;;;14.13;6.70;;;9.60;99.90;;;;;;5020297;28;20525;-65
2022/05/25 04:45:43;;;;;;;9.80;7.03;;;9.70;99.90;;;;;;5019589;28;20578;-66
2022/05/25 04:48:13;;;;;;;7.33;6.53;;;9.80;99.90;;;;;;5020334;28;20467;-66
2022/05/25 04:50:42;;;;;;;8.57;5.90;;;9.80;99.90;;;;;;5019364;28;20470;-65
2022/05/25 04:53:13;;;;;;;7.60;6.70;;;9.80;99.90;;;;;;5020382;28;20466;-65
2022/05/25 04:58:28;;;;;;;7.53;6.73;;;9.90;99.90;;;;;;5019735;28;20524;-65
2022/05/25 05:00:55;;;;;;;14.40;7.53;;;10.10;99.90;;;;;;5019574;28;20496;-66
2022/05/25 05:03:24;;;;;;;12.93;8.10;;;10.30;99.90;;;;;;5020013;28;20479;-65
2022/05/25 05:05:53;;;;;;;11.73;7.33;;;10.50;99.90;;;;;;5019973;28;21003;-66
2022/05/25 05:08:22;;;;;;;8.87;7.30;;;10.60;1.00;;;;;;5020217;28;20538;-66
2022/05/25 05:10:49;;;;;;;8.53;6.43;;;10.80;99.90;;;;;;5019842;28;20724;-67
2022/05/25 05:13:20;;;;;;;10.00;6.30;;;10.90;99.90;;;;;;5019095;28;20464;-67
2022/05/25 05:15:49;;;;;;;7.93;6.40;;;11.00;1.00;;;;;;5019906;28;20889;-67
2022/05/25 05:18:17;;;;;;;10.63;7.00;;;11.10;99.90;;;;;;5019336;28;20567;-66
2022/05/25 05:20:47;;;;;;;10.33;6.73;;;11.10;1.00;;;;;;5019757;28;20767;-66
2022/05/25 05:23:14;;;;;;;11.40;5.90;;;11.20;1.00;;;;;;5019363;28;20495;-66
2022/05/25 05:25:43;;;;;;;12.40;6.60;;;11.20;99.90;;;;;;5019381;28;20539;-66
2022/05/25 05:28:11;;;;;;;10.97;7.57;;;11.30;99.90;;;;;;5019899;28;20452;-66
2022/05/25 05:30:44;;;;;;;11.27;7.30;;;11.30;99.90;;;;;;5018689;28;20555;-65
2022/05/25 05:33:11;;;;;;;8.00;6.97;;;11.40;99.90;;;;;;5019225;28;20518;-67
2022/05/25 05:35:38;;;;;;;8.90;6.83;;;11.50;99.90;;;;;;5019360;28;20494;-67
2022/05/25 05:38:06;;;;;;;10.60;5.70;;;11.50;78.10;;;;;;5019198;28;20460;-67
2022/05/25 05:40:33;;;;;;;9.30;6.20;;;11.60;9.80;;;;;;5017872;28;20469;-69
2022/05/25 05:43:06;;;;;;;7.37;5.60;;;11.70;26.70;;;;;;5016615;28;20467;-66
2022/05/25 05:45:38;;;;;;;8.50;5.43;;;11.90;29.30;;;;;;5017837;28;20488;-67
2022/05/25 05:48:09;;;;;;;8.00;5.57;;;12.00;1.00;;;;;;5018633;28;20838;-68
2022/05/25 05:50:38;;;;;;;5.37;4.67;;;12.10;1.00;;;;;;5016846;28;20885;-66
2022/05/25 05:53:06;;;;;;;6.30;4.97;;;12.20;1.00;;;;;;5019053;28;20526;-67
2022/05/25 05:55:35;;;;;;;8.67;4.90;;;12.50;1.00;;;;;;5018275;28;20524;-67
2022/05/25 05:58:05;;;;;;;5.77;4.73;;;12.70;1.00;;;;;;5019289;28;20530;-67
2022/05/25 06:00:32;;;;;;;7.27;4.83;;;12.80;1.00;;;;;;5017499;28;20527;-67
2022/05/25 06:02:59;;;;;;;9.03;4.53;;;13.00;1.00;;;;;;5018496;28;20479;-68
2022/05/25 06:05:27;;;;;;;7.43;4.83;;;13.10;1.00;;;;;;5018704;28;20987;-67
2022/05/25 06:07:58;;;;;;;7.00;4.60;;;13.20;1.00;;;;;;5019006;28;20464;-66
2022/05/25 06:10:25;;;;;;;12.17;3.97;;;13.40;1.00;;;;;;5018770;28;20796;-66
2022/05/25 06:12:53;;;;;;;4.30;3.50;;;13.60;1.00;;;;;;5017926;28;20468;-66
2022/05/25 06:20:53;;;;;;;5.90;3.97;;;14.30;99.90;;;;;;5018122;28;20536;-66
2022/05/25 06:23:20;;;;;;;5.37;4.07;;;14.50;99.90;;;;;;5018372;28;20456;-66
2022/05/25 06:25:49;;;;;;;4.30;3.90;;;14.50;99.90;;;;;;5018542;28;20527;-66
2022/05/25 06:28:16;;;;;;;6.73;4.00;;;14.30;99.90;;;;;;5017631;28;20471;-66
2022/05/25 06:30:45;;;;;;;4.30;3.47;;;14.60;99.90;;;;;;5018842;28;20464;-66
2022/05/25 06:33:12;;;;;;;5.30;4.27;;;14.80;99.90;;;;;;5017554;28;20542;-68
2022/05/25 06:38:23;;;;;;;6.07;4.00;;;14.40;99.90;;;;;;5015819;28;20451;-65
2022/05/25 06:40:52;;;;;;;4.23;3.63;;;14.50;99.90;;;;;;5018801;28;20460;-66
2022/05/25 06:43:19;;;;;;;4.87;3.73;;;14.70;99.90;;;;;;5018075;28;20905;-66
2022/05/25 06:45:48;;;;;;;7.63;3.60;;;14.90;99.90;;;;;;5018481;28;20492;-65
2022/05/25 06:48:15;;;;;;;5.20;4.20;;;15.00;99.90;;;;;;5017653;28;20545;-66
2022/05/25 06:50:46;;;;;;;6.07;4.27;;;15.40;99.90;;;;;;5017953;28;20472;-66
2022/05/25 06:53:16;;;;;;;4.60;3.73;;;15.60;99.90;;;;;;5017824;28;20911;-66
2022/05/25 06:55:43;;;;;;;6.70;4.40;;;15.90;99.90;;;;;;5018491;28;20460;-65
2022/05/25 06:58:10;;;;;;;5.20;3.53;;;16.30;99.90;;;;;;5018169;28;20924;-65
2022/05/25 07:00:40;;;;;;;9.73;3.17;;;16.50;99.90;;;;;;5017580;28;20526;-65
2022/05/25 07:03:12;;;;;;;5.90;3.20;;;16.60;99.90;;;;;;5003318;28;20477;-65
2022/05/25 07:05:41;;;;;;;5.40;3.13;;;16.60;99.90;;;;;;5018017;28;20841;-65
2022/05/25 07:08:11;;;;;;;5.43;2.90;;;16.70;99.90;;;;;;5011466;28;20442;-65
2022/05/25 07:10:45;;;;;;;2.97;2.67;;;16.60;99.90;;;;;;5016035;28;20522;-64
2022/05/25 07:13:12;;;;;;;3.30;2.37;;;16.60;99.90;;;;;;5016492;28;20467;-65
2022/05/25 07:15:43;;;;;;;4.93;2.90;;;16.50;99.90;;;;;;5016715;28;20766;-65
2022/05/25 07:18:19;;;;;;;4.33;2.80;;;16.70;99.90;;;;;;5016958;28;20464;-65
2022/05/25 07:20:46;;;;;;;3.47;2.70;;;16.80;99.90;;;;;;5018096;28;20495;-64
2022/05/25 07:23:12;;;;;;;3.43;2.80;;;17.40;99.90;;;;;;5017717;28;20464;-65
2022/05/25 07:25:39;;;;;;;3.80;3.10;;;17.60;99.90;;;;;;5015876;28;20932;-65
2022/05/25 07:28:11;;;;;;;3.47;2.57;;;17.80;99.90;;;;;;5017037;28;20755;-65
2022/05/25 07:30:38;;;;;;;3.90;3.10;;;18.00;99.90;;;;;;5017162;28;20491;-65
2022/05/25 07:33:06;;;;;;;2.90;2.00;;;18.30;99.90;;;;;;5017132;28;20951;-64
2022/05/25 07:35:37;;;;;;;2.43;2.23;;;18.40;99.90;;;;;;5016474;28;20475;-65
2022/05/25 07:38:09;;;;;;;3.57;2.90;;;18.60;99.90;;;;;;5016146;28;20750;-64
2022/05/25 07:40:45;;;;;;;4.43;2.63;;;18.60;99.90;;;;;;5016434;28;20785;-65
2022/05/25 07:43:16;;;;;;;5.27;2.53;;;18.20;99.90;;;;;;5017344;28;20470;-64
2022/05/25 07:45:45;;;;;;;3.60;2.77;;;18.70;99.90;;;;;;5016570;28;20527;-65
2022/05/25 07:48:12;;;;;;;3.13;2.73;;;19.20;99.90;;;;;;5017590;28;20514;-64
2022/05/25 07:50:43;;;;;;;3.20;2.40;;;19.50;99.90;;;;;;5016759;28;20495;-63
2022/05/25 07:55:54;;;;;;;3.07;2.40;;;19.40;99.90;;;;;;5015403;28;20454;-64
2022/05/25 07:58:22;;;;;;;3.00;2.50;;;19.50;99.90;;;;;;5019833;28;20534;-64
2022/05/25 08:00:49;;;;;;;4.43;3.03;;;19.20;99.90;;;;;;5020937;28;20464;-64
2022/05/25 08:06:02;;;;;;;3.10;2.53;;;19.20;99.90;;;;;;5020650;28;20479;-63
2022/05/25 08:08:33;;;;;;;4.30;2.63;;;18.80;99.90;;;;;;5021698;28;20471;-64
2022/05/25 08:11:05;;;;;;;2.97;2.50;;;18.40;99.90;;;;;;5020769;28;20460;-64
2022/05/25 08:13:38;;;;;;;3.40;2.77;;;18.60;99.90;;;;;;5021033;28;20487;-64
2022/05/25 08:16:05;;;;;;;3.93;2.17;;;19.50;99.90;;;;;;5020980;28;20511;-67
2022/05/25 08:18:32;;;;;;;2.40;2.17;;;19.70;99.90;;;;;;5018834;28;20474;-63
2022/05/25 08:20:59;;;;;;;2.90;2.47;;;19.70;99.90;;;;;;5020828;28;20484;-64
2022/05/25 08:23:31;;;;;;;3.80;2.60;;;19.70;99.90;;;;;;5021038;28;20438;-64
2022/05/25 08:25:58;;;;;;;2.77;2.30;;;19.30;99.90;;;;;;5020396;28;20561;-63
2022/05/25 08:28:25;;;;;;;4.83;2.70;;;19.10;99.90;;;;;;5019991;28;20467;-63
2022/05/25 08:30:53;;;;;;;3.00;2.70;;;19.40;99.90;;;;;;5001200;28;20472;-63
2022/05/25 08:33:22;;;;;;;3.27;2.30;;;20.00;99.90;;;;;;5006273;28;20533;-63
2022/05/25 08:35:50;;;;;;;3.70;2.90;;;20.70;99.90;;;;;;5021019;28;20531;-65
2022/05/25 08:38:21;;;;;;;3.50;2.43;;;21.30;99.90;;;;;;5020728;28;20582;-64
2022/05/25 08:40:51;;;;;;;4.77;2.10;;;21.00;99.90;;;;;;5019659;28;20915;-63
2022/05/25 08:43:22;;;;;;;2.30;2.07;;;20.60;99.90;;;;;;5020469;28;20507;-64
2022/05/25 08:45:52;;;;;;;2.50;2.30;;;20.40;99.90;;;;;;5020658;28;20924;-63
2022/05/25 08:48:24;;;;;;;3.70;2.57;;;20.10;99.90;;;;;;5020311;28;20553;-64
2022/05/25 08:50:54;;;;;;;2.90;2.60;;;19.60;99.90;;;;;;5019761;28;20949;-64
2022/05/25 08:53:24;;;;;;;3.73;2.60;;;19.30;99.90;;;;;;5020426;28;20467;-64
2022/05/25 08:56:12;;;;;;;4.00;1.97;;;19.40;99.90;;;;;;5020187;28;20558;-63
2022/05/25 08:58:44;;;;;;;3.07;2.00;;;19.80;99.90;;;;;;5019951;28;20467;-63
2022/05/25 09:01:19;;;;;;;2.87;2.60;;;20.40;99.90;;;;;;5020369;28;20974;-64
2022/05/25 09:03:53;;;;;;;2.93;2.20;;;20.80;99.90;;;;;;5020379;28;20892;-66
2022/05/25 09:06:32;;;;;;;2.90;2.63;;;20.70;99.90;;;;;;5019390;28;20550;-62
2022/05/25 09:09:06;;;;;;;2.70;2.50;;;19.80;99.90;;;;;;5017748;28;20526;-62
2022/05/25 09:11:42;;;;;;;3.30;3.00;;;19.40;99.90;;;;;;5019991;28;20975;-63
2022/05/25 09:14:20;;;;;;;3.10;2.70;;;18.80;99.90;;;;;;5020384;28;20558;-63
2022/05/25 09:16:52;;;;;;;3.47;2.60;;;19.40;99.90;;;;;;5019105;28;20877;-63
2022/05/25 09:19:23;;;;;;;2.20;2.00;;;19.90;99.90;;;;;;5019630;28;20503;-63
2022/05/25 09:21:54;;;;;;;4.57;2.63;;;19.90;99.90;;;;;;5000370;28;20515;-63
2022/05/25 09:24:23;;;;;;;2.27;2.07;;;19.70;99.90;;;;;;5000292;28;20464;-64
2022/05/25 09:26:52;;;;;;;2.20;2.00;;;19.30;99.90;;;;;;5011282;28;20503;-64
2022/05/25 09:29:20;;;;;;;2.67;1.90;;;18.90;99.90;;;;;;5019807;28;20901;-63
2022/05/25 09:31:51;;;;;;;2.20;2.00;;;18.70;99.90;;;;;;5019247;28;20510;-63
2022/05/25 09:34:30;;;;;;;3.33;2.00;;;18.10;99.90;;;;;;5019239;28;20499;-63
2022/05/25 09:37:08;;;;;;;3.40;2.73;;;18.40;99.90;;;;;;5018827;28;20495;-62
2022/05/25 09:39:44;;;;;;;2.57;1.87;;;18.00;99.90;;;;;;5019135;28;20456;-62
2022/05/25 09:42:17;;;;;;;3.00;2.50;;;17.80;99.90;;;;;;5019235;28;20517;-63
2022/05/25 09:44:47;;;;;;;2.20;2.00;;;18.40;99.90;;;;;;5019386;28;20901;-63
2022/05/25 09:47:23;;;;;;;2.40;1.73;;;18.80;99.90;;;;;;5018596;28;20840;-64
2022/05/25 09:49:57;;;;;;;2.60;2.17;;;19.30;99.90;;;;;;5019644;28;20522;-65
2022/05/25 09:52:35;;;;;;;2.60;2.40;;;19.90;99.90;;;;;;5018920;28;20862;-62
2022/05/25 09:55:06;;;;;;;2.40;2.17;;;20.00;99.90;;;;;;5019403;28;20811;-63
2022/05/25 09:57:39;;;;;;;2.70;2.10;;;20.10;99.90;;;;;;5018639;28;20446;-64
2022/05/25 10:00:09;;;;;;;2.57;2.37;;;20.20;99.90;;;;;;5014567;28;20476;-63
2022/05/25 10:02:45;;;;;;;2.60;2.40;;;20.20;99.90;;;;;;5017926;28;20542;-64
2022/05/25 10:05:18;;;;;;;2.30;2.10;;;20.90;99.90;;;;;;5018136;28;20567;-63
2022/05/25 10:07:55;;;;;;;2.20;2.10;;;22.00;99.90;;;;;;5018721;28;20484;-62
2022/05/25 10:10:30;;;;;;;2.40;1.80;;;22.50;99.90;;;;;;5017922;28;20566;-64
2022/05/25 10:13:06;;;;;;;2.63;2.30;;;22.00;99.90;;;;;;5018730;28;20518;-63
2022/05/25 10:15:36;;;;;;;2.87;2.30;;;21.50;99.90;;;;;;5016886;28;20468;-64
2022/05/25 10:18:04;;;;;;;2.50;2.13;;;21.30;99.90;;;;;;5015832;28;20460;-64
2022/05/25 10:20:46;;;;;;;1.73;1.63;;;20.60;99.90;;;;;;5015814;28;20472;-62
2022/05/25 10:23:20;;;;;;;2.27;1.70;;;20.00;99.90;;;;;;5017433;28;20542;-62
2022/05/25 10:25:54;;;;;;;3.50;2.10;;;19.90;99.90;;;;;;5017614;28;20550;-63
2022/05/25 10:28:26;;;;;;;2.70;2.27;;;20.70;99.90;;;;;;5017929;28;20605;-65
2022/05/25 10:36:52;;;;;;;3.20;2.13;;;20.70;99.90;;;;;;5016044;28;20895;-63
2022/05/25 10:39:21;;;;;;;2.90;2.07;;;21.60;99.90;;;;;;5014509;28;20468;-63
2022/05/25 10:42:10;;;;;;;3.20;2.47;;;20.90;99.90;;;;;;5017830;28;20566;-63
2022/05/25 10:44:56;;;;;;;2.10;1.90;;;20.30;99.90;;;;;;5016945;28;20445;-63
2022/05/25 10:47:34;;;;;;;2.03;1.73;;;20.50;99.90;;;;;;5016629;28;20492;-63
2022/05/25 10:50:12;;;;;;;1.63;1.53;;;21.40;99.90;;;;;;5015327;28;20475;-63
2022/05/25 10:52:47;;;;;;;2.30;2.10;;;22.20;99.90;;;;;;5017338;28;20467;-62
2022/05/25 10:55:14;;;;;;;3.10;1.80;;;21.50;99.90;;;;;;5015953;28;20464;-62
2022/05/25 10:58:24;;;;;;;3.00;1.70;;;21.70;99.90;;;;;;5017301;28;20538;-62
2022/05/25 11:01:03;;;;;;;2.30;2.10;;;21.80;99.90;;;;;;5017341;28;20468;-64
2022/05/25 11:03:47;;;;;;;2.80;2.60;;;21.60;99.90;;;;;;5018068;28;20467;-64
2022/05/25 11:06:31;;;;;;;2.60;2.30;;;21.00;99.90;;;;;;5017339;28;20466;-63
2022/05/25 11:09:13;;;;;;;3.20;2.07;;;21.20;99.90;;;;;;5018016;28;20917;-63
2022/05/25 11:11:48;;;;;;;1.80;1.70;;;21.80;99.90;;;;;;5017181;28;20460;-64
2022/05/25 11:14:32;;;;;;;2.23;1.70;;;22.00;99.90;;;;;;5015681;28;20476;-63
2022/05/25 11:17:08;;;;;;;2.27;2.07;;;21.90;99.90;;;;;;5003755;28;20483;-65
2022/05/25 11:19:49;;;;;;;2.77;2.07;;;22.70;99.90;;;;;;5014783;28;20572;-64
2022/05/25 11:22:28;;;;;;;2.40;2.20;;;23.40;99.90;;;;;;5015211;28;20581;-63
2022/05/25 11:25:18;;;;;;;2.03;1.93;;;24.30;99.90;;;;;;5016364;28;20471;-64
2022/05/25 11:28:09;;;;;;;2.70;1.70;;;24.40;99.90;;;;;;5007127;28;20863;-63
2022/05/25 11:30:48;;;;;;;1.90;1.80;;;23.80;99.90;;;;;;5016897;28;20492;-63
2022/05/25 11:33:32;;;;;;;2.20;2.00;;;22.60;99.90;;;;;;5015477;28;20479;-62
2022/05/25 11:36:08;;;;;;;2.83;2.07;;;22.50;99.90;;;;;;5017099;28;20467;-63
2022/05/25 11:39:06;;;;;;;2.00;1.80;;;21.80;99.90;;;;;;4999808;28;20465;-64
2022/05/25 11:41:41;;;;;;;2.10;2.00;;;21.00;99.90;;;;;;5009950;28;20472;-64
2022/05/25 11:44:49;;;;;;;2.00;1.80;;;21.00;99.90;;;;;;5017216;28;20895;-64
2022/05/25 11:47:37;;;;;;;3.07;2.40;;;20.60;99.90;;;;;;4987288;28;20495;-64
2022/05/25 11:50:17;;;;;;;2.30;2.00;;;21.40;99.90;;;;;;5017587;28;20770;-65
2022/05/25 11:53:23;;;;;;;2.83;2.53;;;22.40;99.90;;;;;;5016544;28;20901;-64
2022/05/25 11:56:04;;;;;;;2.00;1.80;;;22.90;99.90;;;;;;4967686;28;20495;-64
2022/05/25 11:58:49;;;;;;;2.53;1.93;;;23.70;99.90;;;;;;5014880;28;20550;-64
2022/05/25 12:01:26;;;;;;;2.40;2.20;;;23.20;99.90;;;;;;5014899;28;20837;-63
2022/05/25 12:04:33;;;;;;;3.00;2.40;;;21.30;99.90;;;;;;5014690;28;20464;-64
2022/05/25 12:07:14;;;;;;;3.77;2.73;;;21.70;99.90;;;;;;4953938;29;20490;-64
2022/05/25 12:10:03;;;;;;;3.13;1.90;;;23.00;99.90;;;;;;5011648;28;20468;-64
2022/05/25 12:12:36;;;;;;;3.40;2.20;;;23.50;99.90;;;;;;5015393;28;20855;-64
2022/05/25 12:15:09;;;;;;;2.83;2.50;;;23.80;99.90;;;;;;5015275;28;20966;-64
2022/05/25 12:17:51;;;;;;;2.57;2.20;;;24.30;99.90;;;;;;5015908;28;20546;-64
2022/05/25 12:20:28;;;;;;;1.70;1.60;;;24.30;99.90;;;;;;5016690;28;20468;-64
2022/05/25 12:23:02;;;;;;;2.50;1.83;;;23.60;99.90;;;;;;5015621;28;20487;-64
2022/05/25 12:25:35;;;;;;;2.40;2.20;;;22.70;99.90;;;;;;5015452;28;20582;-63
2022/05/25 12:28:05;;;;;;;2.30;2.00;;;23.10;99.90;;;;;;5016410;28;20550;-63
2022/05/25 12:30:36;;;;;;;2.27;2.00;;;23.70;99.90;;;;;;5016408;28;20468;-63
2022/05/25 12:33:05;;;;;;;3.27;2.10;;;23.50;99.90;;;;;;5017134;28;20488;-62
2022/05/25 12:35:35;;;;;;;3.00;2.40;;;22.90;99.90;;;;;;5016593;28;20522;-63
2022/05/25 12:38:10;;;;;;;2.27;2.03;;;22.80;99.90;;;;;;5017366;28;20460;-63
2022/05/25 12:40:45;;;;;;;2.13;1.90;;;22.40;99.90;;;;;;5015007;28;20478;-63
2022/05/25 12:43:50;;;;;;;5.00;1.80;;;21.50;99.90;;;;;;5017820;28;20474;-63
2022/05/25 12:49:10;;;;;;;6.87;2.20;;;22.40;99.90;;;;;;5019942;28;20931;-63
2022/05/25 12:51:39;;;;;;;3.30;2.00;;;22.80;99.90;;;;;;5020288;28;20518;-64
2022/05/25 12:54:20;;;;;;;2.20;2.07;;;23.60;99.90;;;;;;5020700;28;20468;-64
2022/05/25 12:56:55;;;;;;;2.20;1.90;;;23.90;99.90;;;;;;5019652;28;20486;-65
2022/05/25 12:59:38;;;;;;;3.00;1.80;;;24.20;99.90;;;;;;5020027;28;20812;-62
2022/05/25 13:02:26;;;;;;;2.17;1.67;;;23.20;99.90;;;;;;5020558;28;20943;-61
2022/05/25 13:04:55;;;;;;;2.80;2.20;;;21.70;99.90;;;;;;5019974;28;20952;-64
2022/05/25 13:07:41;;;;;;;2.37;2.17;;;21.30;99.90;;;;;;5019695;28;20492;-65
2022/05/25 13:10:29;;;;;;;2.30;2.10;;;21.50;99.90;;;;;;5020412;28;20467;-63
2022/05/25 13:13:19;;;;;;;3.57;2.53;;;22.40;99.90;;;;;;5003282;28;20467;-61
2022/05/25 13:15:47;;;;;;;6.70;2.03;;;22.60;99.90;;;;;;5019343;28;20476;-60
2022/05/25 13:18:50;;;;;;;4.43;2.20;;;21.80;99.90;;;;;;5019201;28;20583;-63
2022/05/25 13:21:40;;;;;;;3.30;2.10;;;21.20;99.90;;;;;;5018550;28;20467;-63
2022/05/25 13:24:37;;;;;;;2.33;1.90;;;22.10;99.90;;;;;;5000105;28;20465;-64
2022/05/25 13:27:57;;;;;;;5.60;2.80;;;22.30;99.90;;;;;;5006331;28;20944;-62
2022/05/25 13:30:35;;;;;;;2.60;2.20;;;22.40;99.90;;;;;;4937442;29;20528;-63
2022/05/25 13:33:14;;;;;;;4.73;2.40;;;22.20;99.90;;;;;;5007624;28;20464;-63
2022/05/25 13:35:44;;;;;;;2.10;2.00;;;22.90;99.90;;;;;;5018496;28;20471;-62
2022/05/25 13:38:26;;;;;;;2.40;1.87;;;22.70;99.90;;;;;;5016775;28;20482;-62
2022/05/25 13:41:02;;;;;;;1.97;1.73;;;22.80;99.90;;;;;;5017312;28;20890;-63
2022/05/25 13:43:41;;;;;;;2.70;2.30;;;22.90;99.90;;;;;;5017965;28;20553;-64
2022/05/25 13:46:30;;;;;;;3.20;1.60;;;22.80;99.90;;;;;;4999796;28;20452;-64
2022/05/25 13:48:59;;;;;;;3.63;2.20;;;23.20;99.90;;;;;;5015216;28;20550;-62
2022/05/25 13:51:26;;;;;;;2.83;1.90;;;22.70;99.90;;;;;;5018213;28;20542;-63
2022/05/25 13:53:54;;;;;;;3.00;2.00;;;21.70;99.90;;;;;;5018796;28;20534;-63